createdAt,value
2023-09-08T00:01:42.737Z,100.00
2023-09-08T00:04:13.332Z,100.00
2023-09-08T00:06:42.268Z,100.00
2023-09-08T00:09:09.375Z,100.00
2023-09-08T00:11:36.746Z,100.00
2023-09-08T00:14:09.330Z,100.00
2023-09-08T00:16:40.808Z,100.00
2023-09-08T00:19:18.188Z,100.00
2023-09-08T00:21:53.804Z,100.00
2023-09-08T00:24:37.809Z,100.00
2023-09-08T00:27:12.765Z,100.00
2023-09-08T00:29:43.249Z,100.00
2023-09-08T00:32:16.414Z,100.00
2023-09-08T00:34:49.947Z,100.00
2023-09-08T00:37:20.526Z,100.00
2023-09-08T00:39:50.892Z,100.00
2023-09-08T00:42:19.307Z,100.00
2023-09-08T00:44:50.347Z,100.00
2023-09-08T00:47:24.005Z,100.00
2023-09-08T00:49:55.382Z,100.00
2023-09-08T00:52:36.078Z,100.00
2023-09-08T00:55:12.802Z,100.00
2023-09-08T00:57:44.640Z,100.00
2023-09-08T01:00:13.841Z,100.00
2023-09-08T01:02:49.101Z,100.00
2023-09-08T01:05:21.363Z,100.00
2023-09-08T01:07:59.553Z,100.00
2023-09-08T01:10:36.495Z,100.00
2023-09-08T01:13:10.642Z,100.00
2023-09-08T01:15:41.158Z,100.00
2023-09-08T01:18:12.546Z,100.00
2023-09-08T01:21:17.431Z,100.00
2023-09-08T01:24:03.297Z,100.00
2023-09-08T01:26:47.414Z,100.00
2023-09-08T01:29:19.734Z,100.00
2023-09-08T01:31:55.193Z,100.00
2023-09-08T01:34:27.951Z,100.00
2023-09-08T01:41:32.876Z,100.00
2023-09-08T01:44:02.391Z,100.00
2023-09-08T01:46:31.074Z,100.00
2023-09-08T01:49:00.004Z,100.00
2023-09-08T01:51:58.081Z,100.00
2023-09-08T01:54:27.574Z,100.00
2023-09-08T01:57:19.663Z,100.00
2023-09-08T01:59:53.277Z,100.00
2023-09-08T02:02:24.615Z,100.00
2023-09-08T02:04:52.788Z,100.00
2023-09-08T02:07:20.753Z,100.00
2023-09-08T02:09:53.848Z,100.00
2023-09-08T02:12:23.381Z,100.00
2023-09-08T02:14:58.851Z,100.00
2023-09-08T02:17:27.862Z,100.00
2023-09-08T02:20:06.214Z,100.00
2023-09-08T02:22:34.831Z,100.00
2023-09-08T02:25:08.152Z,100.00
2023-09-08T02:27:41.388Z,100.00
2023-09-08T02:30:16.706Z,100.00
2023-09-08T02:32:55.990Z,100.00
2023-09-08T02:35:26.823Z,100.00
2023-09-08T02:37:57.072Z,100.00
2023-09-08T02:40:30.775Z,100.00
2023-09-08T02:43:05.460Z,100.00
2023-09-08T02:45:40.192Z,100.00
2023-09-08T02:48:10.011Z,100.00
2023-09-08T02:50:40.444Z,100.00
2023-09-08T02:53:12.311Z,100.00
2023-09-08T02:55:42.945Z,100.00
2023-09-08T02:58:16.005Z,100.00
2023-09-08T03:00:52.731Z,100.00
2023-09-08T03:03:21.554Z,100.00
2023-09-08T03:06:05.903Z,100.00
2023-09-08T03:08:47.086Z,100.00
2023-09-08T03:11:19.730Z,100.00
2023-09-08T03:13:52.482Z,100.00
2023-09-08T03:16:24.878Z,100.00
2023-09-08T03:18:58.059Z,100.00
2023-09-08T03:21:27.279Z,100.00
2023-09-08T03:23:56.502Z,100.00
2023-09-08T03:26:30.229Z,100.00
2023-09-08T03:29:06.872Z,100.00
2023-09-08T03:31:38.010Z,100.00
2023-09-08T03:34:08.692Z,100.00
2023-09-08T03:36:41.897Z,100.00
2023-09-08T03:39:13.543Z,100.00
2023-09-08T03:41:44.440Z,100.00
2023-09-08T03:44:13.354Z,100.00
2023-09-08T03:46:40.791Z,100.00
2023-09-08T03:49:10.845Z,100.00
2023-09-08T03:51:38.958Z,100.00
2023-09-08T03:54:08.846Z,100.00
2023-09-08T03:56:36.606Z,100.00
2023-09-08T03:59:04.409Z,100.00
2023-09-08T04:01:34.846Z,100.00
2023-09-08T04:04:02.896Z,100.00
2023-09-08T04:06:31.788Z,100.00
2023-09-08T04:09:01.629Z,100.00
2023-09-08T04:11:29.595Z,100.00
2023-09-08T04:14:06.818Z,100.00
2023-09-08T04:16:37.024Z,100.00
2023-09-08T04:19:07.217Z,100.00
2023-09-08T04:21:40.406Z,100.00
2023-09-08T04:24:12.477Z,100.00
2023-09-08T04:26:47.662Z,100.00
2023-09-08T04:29:18.322Z,100.00
2023-09-08T04:31:54.825Z,100.00
2023-09-08T04:34:27.163Z,100.00
2023-09-08T04:36:56.585Z,100.00
2023-09-08T04:39:26.945Z,100.00
2023-09-08T04:41:55.197Z,100.00
2023-09-08T04:44:27.362Z,100.00
2023-09-08T04:46:59.857Z,100.00
2023-09-08T04:49:33.003Z,100.00
2023-09-08T04:52:01.238Z,100.00
2023-09-08T04:54:32.041Z,100.00
2023-09-08T04:57:11.727Z,100.00
2023-09-08T04:59:51.070Z,100.00
2023-09-08T05:02:21.828Z,100.00
2023-09-08T05:04:55.851Z,100.00
2023-09-08T05:07:30.967Z,100.00
2023-09-08T05:10:03.951Z,100.00
2023-09-08T05:12:39.037Z,100.00
2023-09-08T05:15:20.056Z,100.00
2023-09-08T05:17:56.698Z,100.00
2023-09-08T05:20:28.841Z,100.00
2023-09-08T05:22:59.972Z,100.00
2023-09-08T05:25:34.229Z,100.00
2023-09-08T05:28:17.772Z,100.00
2023-09-08T05:30:58.537Z,100.00
2023-09-08T05:33:36.540Z,100.00
2023-09-08T05:36:09.357Z,100.00
2023-09-08T05:38:37.406Z,100.00
2023-09-08T05:41:07.580Z,100.00
2023-09-08T05:43:37.796Z,100.00
2023-09-08T05:46:26.964Z,100.00
2023-09-08T05:57:32.986Z,100.00
2023-09-08T06:04:45.426Z,100.00
2023-09-08T06:07:15.523Z,100.00
2023-09-08T06:09:45.018Z,100.00
2023-09-08T06:12:12.624Z,100.00
2023-09-08T06:14:41.993Z,100.00
2023-09-08T06:17:11.704Z,100.00
2023-09-08T06:19:40.359Z,100.00
2023-09-08T06:22:09.239Z,100.00
2023-09-08T06:24:44.183Z,100.00
2023-09-08T06:27:14.047Z,100.00
2023-09-08T06:29:44.981Z,100.00
2023-09-08T06:32:16.661Z,100.00
2023-09-08T06:34:49.164Z,100.00
2023-09-08T06:37:19.319Z,100.00
2023-09-08T06:39:46.368Z,100.00
2023-09-08T06:42:13.139Z,100.00
2023-09-08T06:44:49.190Z,100.00
2023-09-08T06:47:24.592Z,100.00
2023-09-08T06:49:54.018Z,100.00
2023-09-08T06:52:25.982Z,100.00
2023-09-08T06:54:53.272Z,100.00
2023-09-08T06:57:28.688Z,100.00
2023-09-08T07:00:00.274Z,100.00
2023-09-08T07:02:34.934Z,100.00
2023-09-08T07:05:10.008Z,100.00
2023-09-08T07:07:38.716Z,100.00
2023-09-08T07:10:06.079Z,100.00
2023-09-08T07:12:42.718Z,100.00
2023-09-08T07:15:11.075Z,100.00
2023-09-08T07:17:39.000Z,100.00
2023-09-08T07:20:11.467Z,100.00
2023-09-08T07:22:39.775Z,100.00
2023-09-08T07:25:11.134Z,100.00
2023-09-08T07:27:40.340Z,100.00
2023-09-08T07:30:11.977Z,100.00
2023-09-08T07:32:44.171Z,100.00
2023-09-08T07:35:15.745Z,100.00
2023-09-08T07:37:50.184Z,100.00
2023-09-08T07:40:18.556Z,100.00
2023-09-08T07:42:50.020Z,100.00
2023-09-08T07:45:17.400Z,100.00
2023-09-08T07:47:53.798Z,100.00
2023-09-08T07:50:33.634Z,100.00
2023-09-08T07:53:01.021Z,100.00
2023-09-08T07:55:28.699Z,100.00
2023-09-08T07:57:57.414Z,100.00
2023-09-08T08:00:24.220Z,100.00
2023-09-08T08:02:53.060Z,100.00
2023-09-08T08:05:25.415Z,100.00
2023-09-08T08:07:54.015Z,100.00
2023-09-08T08:10:21.245Z,100.00
2023-09-08T08:12:49.445Z,100.00
2023-09-08T08:15:17.059Z,100.00
2023-09-08T08:17:46.626Z,100.00
2023-09-08T08:20:18.687Z,100.00
2023-09-08T08:22:51.324Z,100.00
2023-09-08T08:25:27.783Z,100.00
2023-09-08T08:28:09.346Z,100.00
2023-09-08T08:30:37.206Z,100.00
2023-09-08T08:33:15.624Z,100.00
2023-09-08T08:35:51.422Z,100.00
2023-09-08T08:38:21.428Z,100.00
2023-09-08T08:40:54.510Z,100.00
2023-09-08T08:43:24.149Z,100.00
2023-09-08T08:45:54.258Z,100.00
2023-09-08T08:48:26.475Z,100.00
2023-09-08T08:50:59.583Z,100.00
2023-09-08T08:53:35.550Z,98.68
2023-09-08T08:56:09.757Z,100.00
2023-09-08T08:58:40.936Z,98.73
2023-09-08T09:01:11.085Z,95.77
2023-09-08T09:03:42.286Z,96.43
2023-09-08T09:06:14.785Z,94.73
2023-09-08T09:08:44.605Z,92.75
2023-09-08T09:11:13.268Z,90.26
2023-09-08T09:13:43.161Z,91.63
2023-09-08T09:16:11.915Z,90.56
2023-09-08T09:19:10.700Z,90.06
2023-09-08T09:21:45.185Z,89.06
2023-09-08T09:24:25.004Z,87.78
2023-09-08T09:26:55.843Z,87.52
2023-09-08T09:29:25.870Z,86.49
2023-09-08T09:31:54.919Z,86.55
2023-09-08T09:34:23.683Z,83.42
2023-09-08T09:36:51.772Z,84.05
2023-09-08T09:39:24.101Z,85.16
2023-09-08T09:42:02.090Z,83.20
2023-09-08T09:44:33.556Z,81.45
2023-09-08T09:47:07.895Z,78.17
2023-09-08T09:49:50.834Z,75.68
2023-09-08T09:52:28.568Z,74.82
2023-09-08T09:54:58.026Z,75.20
2023-09-08T09:57:27.157Z,76.67
2023-09-08T10:00:01.130Z,76.25
2023-09-08T10:02:32.007Z,75.20
2023-09-08T10:05:13.232Z,73.56
2023-09-08T10:07:44.018Z,72.64
2023-09-08T10:10:16.843Z,73.91
2023-09-08T10:12:48.477Z,69.63
2023-09-08T10:15:21.659Z,70.70
2023-09-08T10:17:54.600Z,69.89
2023-09-08T10:20:26.808Z,70.63
2023-09-08T10:23:27.423Z,69.54
2023-09-08T10:26:00.972Z,65.60
2023-09-08T10:28:36.059Z,64.02
2023-09-08T10:31:05.142Z,65.38
2023-09-08T10:33:33.636Z,65.29
2023-09-08T10:36:09.325Z,64.44
2023-09-08T10:38:39.550Z,62.79
2023-09-08T10:41:21.517Z,62.93
2023-09-08T10:44:07.648Z,63.85
2023-09-08T10:46:38.541Z,61.42
2023-09-08T10:49:08.825Z,61.51
2023-09-08T10:51:48.676Z,58.14
2023-09-08T10:54:50.579Z,56.16
2023-09-08T10:57:22.615Z,58.74
2023-09-08T11:00:02.534Z,57.98
2023-09-08T11:02:44.564Z,57.93
2023-09-08T11:05:15.563Z,58.55
2023-09-08T11:07:59.451Z,58.81
2023-09-08T11:10:26.835Z,58.73
2023-09-08T11:12:58.659Z,59.74
2023-09-08T11:15:28.957Z,57.41
2023-09-08T11:17:59.252Z,57.77
2023-09-08T11:20:41.018Z,57.90
2023-09-08T11:25:51.595Z,56.78
2023-09-08T11:28:21.181Z,58.36
2023-09-08T11:30:49.992Z,58.19
2023-09-08T11:33:27.866Z,58.00
2023-09-08T11:35:59.236Z,57.55
2023-09-08T11:38:29.003Z,57.36
2023-09-08T11:41:08.180Z,58.38
2023-09-08T11:43:40.432Z,57.28
2023-09-08T11:46:13.584Z,56.83
2023-09-08T11:48:49.484Z,57.83
2023-09-08T11:51:19.073Z,56.06
2023-09-08T11:53:49.323Z,56.10
2023-09-08T11:56:21.668Z,56.35
2023-09-08T11:58:50.047Z,56.54
2023-09-08T12:01:23.642Z,56.20
2023-09-08T12:04:00.430Z,55.18
2023-09-08T12:06:29.882Z,54.33
2023-09-08T12:08:58.270Z,54.69
2023-09-08T12:14:12.878Z,54.76
2023-09-08T12:16:48.106Z,54.59
2023-09-08T12:19:38.875Z,53.94
2023-09-08T12:22:09.593Z,54.14
2023-09-08T12:24:52.240Z,54.71
2023-09-08T12:27:24.325Z,53.41
2023-09-08T12:30:11.437Z,52.64
2023-09-08T12:32:44.321Z,54.01
2023-09-08T12:35:12.856Z,54.11
2023-09-08T12:37:42.933Z,54.48
2023-09-08T12:40:13.134Z,54.33
2023-09-08T12:42:45.358Z,53.63
2023-09-08T12:45:57.975Z,54.05
2023-09-08T12:48:26.862Z,54.14
2023-09-08T12:50:57.820Z,53.82
2023-09-08T12:53:35.160Z,54.16
2023-09-08T12:56:03.082Z,53.52
2023-09-08T12:58:40.032Z,53.91
2023-09-08T13:01:11.547Z,54.09
2023-09-08T13:03:42.651Z,53.98
2023-09-08T13:06:18.485Z,53.80
2023-09-08T13:08:48.883Z,54.20
2023-09-08T13:11:16.253Z,53.56
2023-09-08T13:13:43.337Z,53.31
2023-09-08T13:16:20.380Z,52.91
2023-09-08T13:18:51.298Z,53.01
2023-09-08T13:21:25.374Z,53.26
2023-09-08T13:23:53.065Z,53.48
2023-09-08T13:26:21.264Z,52.33
2023-09-08T13:28:50.632Z,51.71
2023-09-08T13:31:18.683Z,51.97
2023-09-08T13:33:47.550Z,52.04
2023-09-08T13:36:14.913Z,52.02
2023-09-08T13:38:44.876Z,50.96
2023-09-08T13:41:14.085Z,51.04
2023-09-08T13:43:43.579Z,51.69
2023-09-08T13:46:15.815Z,50.95
2023-09-08T13:48:50.412Z,51.22
2023-09-08T13:51:42.427Z,51.22
2023-09-08T13:54:19.014Z,50.33
2023-09-08T13:57:13.464Z,49.97
2023-09-08T13:59:43.630Z,50.07
2023-09-08T14:07:18.427Z,51.01
2023-09-08T14:10:06.109Z,49.48
2023-09-08T14:12:47.038Z,50.03
2023-09-08T14:15:16.937Z,49.77
2023-09-08T14:17:46.577Z,49.65
2023-09-08T14:20:18.098Z,49.95
2023-09-08T14:23:10.304Z,49.99
2023-09-08T14:25:40.944Z,50.03
2023-09-08T14:28:08.921Z,49.96
2023-09-08T14:30:53.475Z,49.13
2023-09-08T14:33:23.033Z,49.85
2023-09-08T14:35:57.881Z,50.52
2023-09-08T14:38:26.387Z,49.79
2023-09-08T14:40:58.715Z,49.66
2023-09-08T14:43:30.535Z,49.59
2023-09-08T14:46:04.668Z,50.61
2023-09-08T14:48:34.451Z,50.64
2023-09-08T14:51:08.387Z,50.17
2023-09-08T14:53:35.969Z,50.23
2023-09-08T14:56:12.258Z,49.77
2023-09-08T14:58:39.554Z,50.35
2023-09-08T15:01:09.779Z,49.98
2023-09-08T15:03:38.739Z,49.85
2023-09-08T15:06:05.934Z,49.37
2023-09-08T15:08:35.533Z,50.45
2023-09-08T15:11:04.960Z,50.79
2023-09-08T15:13:38.818Z,50.03
2023-09-08T15:16:07.949Z,50.01
2023-09-08T15:18:40.479Z,49.86
2023-09-08T15:21:09.524Z,50.24
2023-09-08T15:23:38.025Z,49.90
2023-09-08T15:26:05.566Z,50.34
2023-09-08T15:28:36.359Z,50.56
2023-09-08T15:31:04.838Z,50.50
2023-09-08T15:33:35.413Z,50.60
2023-09-08T15:36:03.680Z,50.79
2023-09-08T15:38:33.504Z,50.70
2023-09-08T15:41:08.630Z,51.75
2023-09-08T15:43:43.275Z,51.25
2023-09-08T15:46:23.602Z,52.52
2023-09-08T15:48:55.548Z,53.38
2023-09-08T15:51:27.025Z,53.60
2023-09-08T15:53:58.079Z,53.80
2023-09-08T15:56:26.467Z,54.30
2023-09-08T15:58:53.520Z,54.68
2023-09-08T16:01:21.938Z,54.77
2023-09-08T16:03:53.994Z,55.04
2023-09-08T16:06:33.424Z,55.44
2023-09-08T16:09:04.673Z,55.60
2023-09-08T16:11:35.261Z,55.85
2023-09-08T16:14:08.229Z,56.45
2023-09-08T16:16:42.208Z,56.70
2023-09-08T16:19:12.166Z,56.73
2023-09-08T16:21:43.649Z,57.39
2023-09-08T16:24:19.846Z,57.42
2023-09-08T16:26:50.598Z,57.57
2023-09-08T16:29:21.778Z,57.67
2023-09-08T16:31:56.906Z,58.15
2023-09-08T16:34:25.190Z,58.35
2023-09-08T16:36:54.367Z,58.69
2023-09-08T16:39:27.290Z,59.47
2023-09-08T16:42:04.442Z,60.71
2023-09-08T16:44:35.340Z,61.89
2023-09-08T16:47:03.853Z,63.02
2023-09-08T16:49:36.177Z,63.99
2023-09-08T16:52:06.107Z,64.61
2023-09-08T16:54:36.864Z,65.28
2023-09-08T16:57:11.232Z,65.75
2023-09-08T16:59:45.376Z,66.67
2023-09-08T17:02:16.336Z,67.65
2023-09-08T17:04:45.949Z,68.65
2023-09-08T17:07:16.960Z,69.56
2023-09-08T17:09:47.876Z,70.43
2023-09-08T17:12:27.397Z,71.48
2023-09-08T17:14:57.024Z,72.48
2023-09-08T17:17:30.592Z,73.78
2023-09-08T17:20:00.829Z,74.52
2023-09-08T17:22:28.437Z,76.02
2023-09-08T17:25:01.160Z,77.09
2023-09-08T17:27:29.142Z,78.65
2023-09-08T17:30:00.472Z,80.51
2023-09-08T17:32:28.440Z,81.89
2023-09-08T17:34:57.007Z,83.39
2023-09-08T17:37:34.273Z,85.34
2023-09-08T17:40:03.112Z,87.37
2023-09-08T17:42:30.396Z,89.18
2023-09-08T17:45:01.562Z,91.01
2023-09-08T17:47:31.192Z,93.84
2023-09-08T17:50:00.042Z,95.73
2023-09-08T17:52:29.337Z,98.06
2023-09-08T17:55:04.262Z,100.00
2023-09-08T17:57:39.995Z,100.00
2023-09-08T18:00:12.793Z,100.00
2023-09-08T18:02:46.089Z,100.00
2023-09-08T18:05:14.684Z,100.00
2023-09-08T18:07:46.781Z,100.00
2023-09-08T18:10:17.502Z,100.00
2023-09-08T18:12:45.373Z,100.00
2023-09-08T18:15:13.086Z,100.00
2023-09-08T18:17:45.888Z,100.00
2023-09-08T18:20:16.708Z,100.00
2023-09-08T18:22:48.331Z,100.00
2023-09-08T18:25:37.874Z,100.00
2023-09-08T18:28:10.204Z,100.00
2023-09-08T18:30:40.141Z,100.00
2023-09-08T18:33:13.239Z,100.00
2023-09-08T18:35:42.953Z,100.00
2023-09-08T18:38:13.133Z,100.00
2023-09-08T18:40:50.306Z,100.00
2023-09-08T18:43:21.255Z,100.00
2023-09-08T18:45:48.740Z,100.00
2023-09-08T18:48:21.375Z,100.00
2023-09-08T18:50:49.693Z,100.00
2023-09-08T18:53:20.419Z,100.00
2023-09-08T18:55:51.194Z,100.00
2023-09-08T18:58:19.414Z,100.00
2023-09-08T19:00:47.077Z,100.00
2023-09-08T19:03:20.204Z,100.00
2023-09-08T19:05:50.731Z,100.00
2023-09-08T19:08:19.225Z,100.00
2023-09-08T19:10:47.987Z,100.00
2023-09-08T19:13:17.515Z,100.00
2023-09-08T19:15:53.805Z,100.00
2023-09-08T19:18:22.347Z,100.00
2023-09-08T19:20:54.754Z,100.00
2023-09-08T19:23:23.233Z,100.00
2023-09-08T19:25:51.454Z,100.00
2023-09-08T19:28:23.887Z,100.00
2023-09-08T19:30:57.905Z,100.00
2023-09-08T19:33:30.741Z,100.00
2023-09-08T19:36:00.978Z,100.00
2023-09-08T19:38:34.056Z,100.00
2023-09-08T19:41:05.573Z,100.00
2023-09-08T19:43:32.820Z,100.00
2023-09-08T19:46:08.288Z,100.00
2023-09-08T19:48:37.210Z,100.00
2023-09-08T19:51:08.028Z,100.00
2023-09-08T19:53:36.019Z,100.00
2023-09-08T19:56:04.162Z,100.00
2023-09-08T19:58:34.586Z,100.00
2023-09-08T20:01:05.963Z,100.00
2023-09-08T20:03:37.686Z,100.00
2023-09-08T20:06:11.427Z,100.00
2023-09-08T20:08:45.492Z,100.00
2023-09-08T20:11:13.753Z,100.00
2023-09-08T20:13:44.066Z,100.00
2023-09-08T20:16:13.572Z,100.00
2023-09-08T20:18:41.305Z,100.00
2023-09-08T20:21:19.843Z,100.00
2023-09-08T20:23:49.174Z,100.00
2023-09-08T20:26:20.525Z,100.00
2023-09-08T20:28:55.668Z,100.00
2023-09-08T20:31:25.181Z,100.00
2023-09-08T20:33:53.466Z,100.00
2023-09-08T20:36:22.216Z,100.00
2023-09-08T20:38:52.663Z,100.00
2023-09-08T20:41:22.709Z,100.00
2023-09-08T20:43:52.894Z,100.00
2023-09-08T20:46:23.680Z,100.00
2023-09-08T20:48:53.483Z,100.00
2023-09-08T20:51:24.259Z,100.00
2023-09-08T20:53:51.701Z,100.00
2023-09-08T20:56:19.394Z,100.00
2023-09-08T20:58:48.484Z,100.00
2023-09-08T21:01:21.325Z,100.00
2023-09-08T21:03:50.025Z,100.00
2023-09-08T21:06:21.263Z,100.00
2023-09-08T21:08:56.666Z,100.00
2023-09-08T21:11:34.162Z,100.00
2023-09-08T21:14:02.098Z,100.00
2023-09-08T21:16:30.598Z,100.00
2023-09-08T21:18:59.234Z,100.00
2023-09-08T21:21:43.777Z,100.00
2023-09-08T21:24:17.638Z,100.00
2023-09-08T21:26:48.833Z,100.00
2023-09-08T21:29:21.402Z,100.00
2023-09-08T21:32:01.455Z,100.00
2023-09-08T21:34:32.817Z,100.00
2023-09-08T21:37:03.002Z,100.00
2023-09-08T21:39:34.104Z,100.00
2023-09-08T21:42:04.311Z,100.00
2023-09-08T21:44:32.689Z,100.00
2023-09-08T21:47:05.391Z,100.00
2023-09-08T21:49:38.344Z,100.00
2023-09-08T21:52:16.160Z,100.00
2023-09-08T21:54:53.484Z,100.00
2023-09-08T21:57:25.331Z,100.00
2023-09-08T21:59:58.484Z,100.00
2023-09-08T22:02:26.366Z,100.00
2023-09-08T22:05:00.751Z,100.00
2023-09-08T22:07:28.693Z,100.00
2023-09-08T22:10:04.277Z,100.00
2023-09-08T22:12:32.564Z,100.00
2023-09-08T22:15:01.491Z,100.00
2023-09-08T22:17:30.405Z,100.00
2023-09-08T22:19:58.379Z,100.00
2023-09-08T22:22:29.342Z,100.00
2023-09-08T22:24:56.460Z,100.00
2023-09-08T22:27:32.262Z,100.00
2023-09-08T22:30:08.188Z,100.00
2023-09-08T22:32:40.471Z,100.00
2023-09-08T22:35:08.028Z,100.00
2023-09-08T22:37:39.392Z,100.00
2023-09-08T22:40:10.423Z,100.00
2023-09-08T22:42:40.577Z,100.00
2023-09-08T22:45:12.166Z,100.00
2023-09-08T22:47:41.169Z,100.00
2023-09-08T22:50:12.402Z,100.00
2023-09-08T22:52:44.589Z,100.00
2023-09-08T22:55:24.206Z,100.00
2023-09-08T22:57:54.174Z,100.00
2023-09-08T23:00:25.624Z,100.00
2023-09-08T23:02:54.362Z,100.00
2023-09-08T23:05:29.575Z,100.00
2023-09-08T23:08:03.728Z,100.00
2023-09-08T23:10:31.990Z,100.00
2023-09-08T23:13:09.123Z,100.00
2023-09-08T23:15:41.965Z,100.00
2023-09-08T23:18:11.115Z,100.00
2023-09-08T23:20:50.989Z,100.00
2023-09-08T23:23:22.089Z,100.00
2023-09-08T23:25:54.680Z,100.00
2023-09-08T23:28:27.775Z,100.00
2023-09-08T23:31:00.213Z,100.00
2023-09-08T23:33:29.790Z,100.00
2023-09-08T23:35:58.078Z,100.00
2023-09-08T23:38:34.451Z,100.00
2023-09-08T23:41:01.983Z,100.00
2023-09-08T23:43:31.947Z,100.00
2023-09-08T23:46:00.724Z,100.00
2023-09-08T23:48:29.796Z,100.00
2023-09-08T23:50:58.893Z,100.00
2023-09-08T23:53:31.560Z,100.00
2023-09-08T23:55:59.080Z,100.00
2023-09-08T23:58:31.854Z,100.00
